Portada
METAR-TAF:

METAR-TAF

Aeroports :

Txità, Rússia

latitud: 52-05N, longitud: 113-29E, altitud: 685 m

Observació

L'informe es va fer fa 34 minuts, a les 20:00 UTC
Vent 16 kt del Oest
Temperatura -10°C
Humitat 56%
Pressió 1018 hPa
Visibilitat 10 km o més

METAR: UIAA 092000Z 27008MPS 9999 NSC M10/M17 Q1018 R29/410160 NOSIG RMK QFE705/0940

Hora: 05:34 (20:34 UTC)

Pronòstic

L'informe es va fer fa 3 hores i 34 minuts, a les 17:00 UTC
Pronòstic vàlid del 09 a les 18 UTC al 10 a les 18 UTC
Vent 10 kt del Oest amb ràfegues de 19 kt
Visibilitat 10 km o més
Núvols disperses a una alçada de 3000 ft, Cumulonimbus.
Temporalment
l' 09 a les 18 UTC al 10 a les 09 UTC
Vent 19 kt del Oest amb ràfegues de 31 kt

TAF: UIAA 091700Z 0918/1018 26005G10MPS 9999 SCT030CB TEMPO 0918/1009 27010G16MPS

Observacions i pronòstics meteorològics de més de 4000 aeroports (METAR i TAF).

Les estacions disponibles són els punts grocs i vermells al mapa.

Posi el ratolí al punt desitjat per veure el nom de l'estació.

Feu clic per veure les observacions i els pronòstics meteorològics.

Per canviar el mapa: feu clic els botons verds amb una creu de color negre per apropar; al botó verd amb un guió per allunyar la imatge; o en les fletxes verdes per a mapes adjacents.


METAR-TAF: